Kezdőlap
METAR-TAF:

METAR-TAF

Repülőterek :

Red Wing Regional Airport

Red Wing, Minnesota, Amerikai Egyesült Államok

földrajzi szélesség: 44-35-25N, földrajzi hosszúság: 092-29-10W, magasság: 239 m

Jelenlegi meteorológiai megfigyelések

A jelentés 5 perccel ezelõtt készült, 06:36 UTC
Kelet-délkeleti szél 16 kt széllökések: 26 kt
Hőmérséklet 10°C
Páratartalom 76%
Légköri nyomás 1005 hPa
Látótávolság: 6.4 km
Borult 2300 lábon
erőteljes esõzés

METAR: KRGK 220636Z AUTO 11016G26KT 4SM +RA OVC023 10/06 A2969 RMK AO2

Idő: 01:41 (06:41 UTC)


TAF: hiányzik

Meteorológiai megfigyelések és előrejelzések több, mint 4000 repülőtéren (METAR és TAF jelentéseket).

A térképen piros és sárga pontok jelzik az elérhető meteorológiai állomásokat.

Mozgassa az egeret a pont fölött, hogy megjelenjen az állomás neve.

Azután kattintson az időjárási megfigyelések és előrejelzések megtekintéséhez.

A térkép megváltoztatása: kattintson a fekete keresztel jelölt zöld gombra ráközelítéshez, a vonallal jelölt zöld gombra távolításhoz, vagy a zöld nyilakra a szomszédos térképek eléréséhez.


METAR-TAF: